createdAt,value
2018-05-21T00:02:30.943Z,87.85
2018-05-21T00:05:03.304Z,83.65
2018-05-21T00:07:35.666Z,87.15
2018-05-21T00:10:07.435Z,89.07
2018-05-21T00:12:40.440Z,93.53
2018-05-21T00:15:32.198Z,90.72
2018-05-21T00:18:05.180Z,82.18
2018-05-21T00:20:36.806Z,87.93
2018-05-21T00:23:10.887Z,82.22
2018-05-21T00:25:42.464Z,89.75
2018-05-21T00:28:14.635Z,83.00
2018-05-21T00:30:57.074Z,82.12
2018-05-21T00:33:28.513Z,80.40
2018-05-21T00:35:59.732Z,82.37
2018-05-21T00:38:36.963Z,83.90
2018-05-21T00:41:08.284Z,85.70
2018-05-21T00:43:40.986Z,86.95
2018-05-21T00:49:21.443Z,83.35
2018-05-21T00:51:53.379Z,83.05
2018-05-21T00:54:24.958Z,83.15
2018-05-21T00:56:58.276Z,84.32
2018-05-21T01:02:32.395Z,89.37
2018-05-21T01:05:04.249Z,82.25
2018-05-21T01:07:40.228Z,86.07
2018-05-21T01:10:11.651Z,82.88
2018-05-21T01:12:42.998Z,78.78
2018-05-21T01:15:14.451Z,83.85
2018-05-21T01:17:45.924Z,84.00
2018-05-21T01:20:26.850Z,85.82
2018-05-21T01:22:58.462Z,85.53
2018-05-21T01:25:32.496Z,83.85
2018-05-21T01:28:10.483Z,85.57
2018-05-21T01:30:41.916Z,80.80
2018-05-21T01:33:13.641Z,83.55
2018-05-21T01:35:52.579Z,80.50
2018-05-21T01:38:24.028Z,83.82
2018-05-21T01:40:55.472Z,84.93
2018-05-21T01:43:27.263Z,80.80
2018-05-21T01:45:58.675Z,85.10
2018-05-21T01:48:30.863Z,80.45
2018-05-21T01:51:02.089Z,81.97
2018-05-21T01:53:33.951Z,87.45
2018-05-21T01:56:18.338Z,84.80
2018-05-21T01:58:50.431Z,82.57
2018-05-21T02:01:21.734Z,78.47
2018-05-21T02:03:53.909Z,80.15
2018-05-21T02:06:25.336Z,79.40
2018-05-21T02:08:56.719Z,83.03
2018-05-21T02:11:28.006Z,82.15
2018-05-21T02:13:59.621Z,84.43
2018-05-21T02:19:39.603Z,77.90
2018-05-21T02:22:11.391Z,81.45
2018-05-21T02:24:42.809Z,81.63
2018-05-21T02:27:27.255Z,86.60
2018-05-21T02:29:59.976Z,87.97
2018-05-21T02:32:31.480Z,77.60
2018-05-21T02:35:03.992Z,80.10
2018-05-21T02:37:35.404Z,80.25
2018-05-21T02:40:06.859Z,81.80
2018-05-21T02:42:44.458Z,79.03
2018-05-21T02:45:15.911Z,74.62
2018-05-21T02:47:48.148Z,76.37
2018-05-21T02:50:24.099Z,79.57
2018-05-21T02:52:59.651Z,78.43
2018-05-21T02:55:32.555Z,71.97
2018-05-21T02:58:04.895Z,77.10
2018-05-21T03:00:36.581Z,76.18
2018-05-21T03:03:09.910Z,84.78
2018-05-21T03:05:41.423Z,78.80
2018-05-21T03:08:12.944Z,74.07
2018-05-21T03:13:41.264Z,73.10
2018-05-21T03:16:12.547Z,74.70
2018-05-21T03:18:50.103Z,79.93
2018-05-21T03:21:21.923Z,79.75
2018-05-21T03:23:54.449Z,81.32
2018-05-21T03:26:31.618Z,81.65
2018-05-21T03:29:02.984Z,82.00
2018-05-21T03:31:34.351Z,79.05
2018-05-21T03:34:25.667Z,85.22
2018-05-21T03:36:57.364Z,81.45
2018-05-21T03:39:28.747Z,81.57
2018-05-21T03:42:00.479Z,78.82
2018-05-21T03:44:32.478Z,76.72
2018-05-21T03:47:04.212Z,78.35
2018-05-21T03:49:39.710Z,77.60
2018-05-21T03:52:11.077Z,80.07
2018-05-21T03:54:42.435Z,76.57
2018-05-21T03:57:19.990Z,72.00
2018-05-21T04:00:01.985Z,71.60
2018-05-21T04:03:46.162Z,74.35
2018-05-21T04:06:17.568Z,80.05
2018-05-21T04:08:49.227Z,75.68
2018-05-21T04:11:20.677Z,80.07
2018-05-21T04:13:52.038Z,84.50
2018-05-21T04:16:25.204Z,79.43
2018-05-21T04:18:57.682Z,79.12
2018-05-21T04:21:29.676Z,79.00
2018-05-21T04:24:01.616Z,75.20
2018-05-21T04:26:32.970Z,80.05
2018-05-21T04:29:04.632Z,79.78
2018-05-21T04:31:35.955Z,75.12
2018-05-21T04:34:07.623Z,80.40
2018-05-21T04:36:39.179Z,80.82
2018-05-21T04:39:10.432Z,76.35
2018-05-21T04:41:43.101Z,72.45
2018-05-21T04:44:14.676Z,84.10
2018-05-21T04:46:46.104Z,80.05
2018-05-21T04:49:17.883Z,83.28
2018-05-21T04:51:49.234Z,81.28
2018-05-21T04:54:33.689Z,86.60
2018-05-21T04:57:05.471Z,82.07
2018-05-21T04:59:36.691Z,75.80
2018-05-21T05:02:08.042Z,79.00
2018-05-21T05:04:39.107Z,81.95
2018-05-21T05:07:10.130Z,80.30
2018-05-21T05:09:41.722Z,81.00
2018-05-21T05:12:13.120Z,83.25
2018-05-21T05:14:44.218Z,80.68
2018-05-21T05:17:15.520Z,81.05
2018-05-21T05:19:46.854Z,83.72
2018-05-21T05:22:25.683Z,81.90
2018-05-21T05:24:57.287Z,89.65
2018-05-21T05:27:28.667Z,86.20
2018-05-21T05:30:00.544Z,87.15
2018-05-21T05:32:31.682Z,79.85
2018-05-21T05:35:03.336Z,87.55
2018-05-21T05:37:34.779Z,88.05
2018-05-21T05:40:06.236Z,82.43
2018-05-21T05:42:43.723Z,74.93
2018-05-21T05:45:15.179Z,80.30
2018-05-21T05:47:46.532Z,83.07
2018-05-21T05:50:18.262Z,82.90
2018-05-21T05:52:49.739Z,88.25
2018-05-21T05:55:21.191Z,84.68
2018-05-21T05:57:55.017Z,80.43
2018-05-21T06:00:27.754Z,80.68
2018-05-21T06:02:59.499Z,81.28
2018-05-21T06:05:31.859Z,88.00
2018-05-21T06:08:04.272Z,87.15
2018-05-21T06:10:35.751Z,84.87
2018-05-21T06:13:25.019Z,87.00
2018-05-21T06:15:56.734Z,83.25
2018-05-21T06:18:28.202Z,86.63
2018-05-21T06:20:59.664Z,85.75
2018-05-21T06:23:31.115Z,86.15
2018-05-21T06:26:03.152Z,83.15
2018-05-21T06:28:48.266Z,87.32
2018-05-21T06:31:19.713Z,84.00
2018-05-21T06:33:51.361Z,89.78
2018-05-21T06:36:22.695Z,84.90
2018-05-21T06:38:54.715Z,92.72
2018-05-21T06:41:26.139Z,84.62
2018-05-21T06:43:57.452Z,82.65
2018-05-21T06:46:29.243Z,87.30
2018-05-21T06:49:09.184Z,86.87
2018-05-21T06:51:41.145Z,87.72
2018-05-21T06:54:12.679Z,86.32
2018-05-21T06:56:44.166Z,81.87
2018-05-21T06:59:15.680Z,88.18
2018-05-21T07:01:47.476Z,89.50
2018-05-21T07:04:19.087Z,90.07
2018-05-21T07:07:12.483Z,88.43
2018-05-21T07:09:44.224Z,85.05
2018-05-21T07:12:15.794Z,81.53
2018-05-21T07:14:49.775Z,80.70
2018-05-21T07:17:21.735Z,88.75
2018-05-21T07:19:53.412Z,80.03
2018-05-21T07:22:32.652Z,80.53
2018-05-21T07:25:04.383Z,87.32
2018-05-21T07:27:36.223Z,84.37
2018-05-21T07:30:10.255Z,81.28
2018-05-21T07:32:41.956Z,81.07
2018-05-21T07:35:13.894Z,84.53
2018-05-21T07:37:47.608Z,84.70
2018-05-21T07:40:19.131Z,92.70
2018-05-21T07:42:50.803Z,87.70
2018-05-21T07:45:22.747Z,86.00
2018-05-21T07:47:54.775Z,89.85
2018-05-21T07:50:30.161Z,84.65
2018-05-21T07:53:02.627Z,83.40
2018-05-21T07:55:34.496Z,87.68
2018-05-21T07:58:08.926Z,83.97
2018-05-21T08:00:40.472Z,83.85
2018-05-21T08:03:13.243Z,82.93
2018-05-21T08:05:44.498Z,80.00
2018-05-21T08:08:16.175Z,81.03
2018-05-21T08:10:48.846Z,87.28
2018-05-21T08:13:20.855Z,88.00
2018-05-21T08:15:52.250Z,80.43
2018-05-21T08:18:27.283Z,88.85
2018-05-21T08:20:58.836Z,84.62
2018-05-21T08:23:30.406Z,90.43
2018-05-21T08:26:01.971Z,85.90
2018-05-21T08:28:33.465Z,85.68
2018-05-21T08:31:08.557Z,84.93
2018-05-21T08:33:39.999Z,78.10
2018-05-21T08:36:11.431Z,82.28
2018-05-21T08:38:56.832Z,84.05
2018-05-21T08:41:28.151Z,86.57
2018-05-21T08:43:59.743Z,79.62
2018-05-21T08:46:40.510Z,83.53
2018-05-21T08:49:12.383Z,86.43
2018-05-21T08:51:43.679Z,81.53
2018-05-21T08:54:15.955Z,84.32
2018-05-21T08:56:47.411Z,86.72
2018-05-21T08:59:18.775Z,84.37
2018-05-21T09:01:50.315Z,85.78
2018-05-21T09:04:21.887Z,80.20
2018-05-21T09:09:52.394Z,87.93
2018-05-21T09:12:23.926Z,85.25
2018-05-21T09:14:55.648Z,87.62
2018-05-21T09:17:27.011Z,91.20
2018-05-21T09:19:58.444Z,87.43
2018-05-21T09:22:29.841Z,95.15
2018-05-21T09:25:01.393Z,95.38
2018-05-21T09:27:37.887Z,91.87
2018-05-21T09:30:10.979Z,89.53
2018-05-21T09:32:42.422Z,92.18
2018-05-21T09:35:21.375Z,85.35
2018-05-21T09:37:52.795Z,85.50
2018-05-21T09:40:25.542Z,93.72
2018-05-21T09:42:56.942Z,86.70
2018-05-21T09:45:28.404Z,91.50
2018-05-21T09:47:59.855Z,88.15
2018-05-21T09:50:36.523Z,90.40
2018-05-21T09:53:08.976Z,90.60
2018-05-21T09:55:40.351Z,87.95
2018-05-21T09:58:13.776Z,94.20
2018-05-21T10:00:46.105Z,93.18
2018-05-21T10:03:17.435Z,89.53
2018-05-21T10:05:48.536Z,86.78
2018-05-21T10:08:19.779Z,97.32
2018-05-21T10:10:50.842Z,96.65
2018-05-21T10:13:22.444Z,94.68
2018-05-21T10:15:53.688Z,86.95
2018-05-21T10:18:24.734Z,96.03
2018-05-21T10:20:56.083Z,92.62
2018-05-21T10:23:27.095Z,93.97
2018-05-21T10:25:58.815Z,91.60
2018-05-21T10:28:35.752Z,99.35
2018-05-21T10:31:06.863Z,94.60
2018-05-21T10:33:38.131Z,94.62
2018-05-21T10:36:09.490Z,91.03
2018-05-21T10:38:40.847Z,87.43
2018-05-21T10:41:12.879Z,89.05
2018-05-21T10:43:44.514Z,90.38
2018-05-21T10:46:15.950Z,95.53
2018-05-21T10:48:47.662Z,87.00
2018-05-21T10:51:19.093Z,92.35
2018-05-21T10:53:50.562Z,92.55
2018-05-21T10:56:22.251Z,91.72
2018-05-21T10:58:53.599Z,91.07
2018-05-21T11:04:32.471Z,92.78
2018-05-21T11:07:03.767Z,93.15
2018-05-21T11:09:35.136Z,99.28
2018-05-21T11:12:06.579Z,101.07
2018-05-21T11:14:37.915Z,101.43
2018-05-21T11:17:09.252Z,91.50
2018-05-21T11:19:40.332Z,104.20
2018-05-21T11:22:11.668Z,92.45
2018-05-21T11:24:47.800Z,86.78
2018-05-21T11:27:19.139Z,86.97
2018-05-21T11:29:50.634Z,94.25
2018-05-21T11:32:21.981Z,94.53
2018-05-21T11:34:53.176Z,100.32
2018-05-21T11:37:36.044Z,94.18
2018-05-21T11:40:07.392Z,103.03
2018-05-21T11:42:38.434Z,98.50
2018-05-21T11:48:06.559Z,89.70
2018-05-21T11:50:38.408Z,95.28
2018-05-21T11:53:11.098Z,91.07
2018-05-21T11:55:42.932Z,89.20
2018-05-21T11:58:14.544Z,93.75
2018-05-21T12:00:57.296Z,93.62
2018-05-21T12:03:29.251Z,92.28
2018-05-21T12:06:00.604Z,92.47
2018-05-21T12:08:32.531Z,95.72
2018-05-21T12:11:03.899Z,92.03
2018-05-21T12:13:35.297Z,99.87
2018-05-21T12:19:09.135Z,98.60
2018-05-21T12:21:40.528Z,102.12
2018-05-21T12:24:11.978Z,94.37
2018-05-21T12:26:43.331Z,95.72
2018-05-21T12:29:18.674Z,99.65
2018-05-21T12:31:50.246Z,95.00
2018-05-21T12:34:21.595Z,99.78
2018-05-21T12:36:52.918Z,98.95
2018-05-21T12:39:24.429Z,95.95
2018-05-21T12:42:19.492Z,90.97
2018-05-21T12:44:51.420Z,88.80
2018-05-21T12:47:22.779Z,98.10
2018-05-21T12:49:54.438Z,95.18
2018-05-21T12:52:26.144Z,88.95
2018-05-21T12:54:57.836Z,97.82
2018-05-21T12:57:30.804Z,90.97
2018-05-21T13:00:02.463Z,95.07
2018-05-21T13:02:34.071Z,94.55
2018-05-21T13:05:17.377Z,104.25
2018-05-21T13:07:53.465Z,98.95
2018-05-21T13:10:30.747Z,99.65
2018-05-21T13:13:03.820Z,91.18
2018-05-21T13:15:40.476Z,96.50
2018-05-21T13:18:13.631Z,89.32
2018-05-21T13:20:59.284Z,92.50
2018-05-21T13:23:30.703Z,101.25
2018-05-21T13:26:02.662Z,98.65
2018-05-21T13:28:34.541Z,101.47
2018-05-21T13:31:06.915Z,99.22
2018-05-21T13:33:38.382Z,94.25
2018-05-21T13:36:14.912Z,106.45
2018-05-21T13:38:46.267Z,97.75
2018-05-21T13:41:17.655Z,94.43
2018-05-21T13:43:49.375Z,95.32
2018-05-21T13:46:20.883Z,101.25
2018-05-21T13:48:52.271Z,103.35
2018-05-21T13:51:23.952Z,99.68
2018-05-21T13:53:55.317Z,95.82
2018-05-21T13:56:28.092Z,93.10
2018-05-21T13:58:59.479Z,100.22
2018-05-21T14:01:30.785Z,93.20
2018-05-21T14:04:02.227Z,96.40
2018-05-21T14:06:33.727Z,101.85
2018-05-21T14:09:06.575Z,90.97
2018-05-21T14:11:38.059Z,87.78
2018-05-21T14:14:09.343Z,92.62
2018-05-21T14:16:52.719Z,92.12
2018-05-21T14:19:24.349Z,89.20
2018-05-21T14:21:56.111Z,90.47
2018-05-21T14:24:27.454Z,94.07
2018-05-21T14:26:59.082Z,90.65
2018-05-21T14:29:30.523Z,109.45
2018-05-21T14:32:04.715Z,97.32
2018-05-21T14:34:36.934Z,69.85
2018-05-21T14:37:21.361Z,99.57
2018-05-21T14:39:52.899Z,99.95
2018-05-21T14:42:34.476Z,101.20
2018-05-21T14:45:13.507Z,98.75
2018-05-21T14:47:51.654Z,94.55
2018-05-21T14:50:23.943Z,96.85
2018-05-21T14:52:55.691Z,104.03
2018-05-21T14:55:27.142Z,98.00
2018-05-21T14:57:58.399Z,95.15
2018-05-21T15:00:30.307Z,99.65
2018-05-21T15:03:02.487Z,94.57
2018-05-21T15:05:34.182Z,96.40
2018-05-21T15:08:06.262Z,105.15
2018-05-21T15:10:38.846Z,104.07
2018-05-21T15:13:12.200Z,101.70
2018-05-21T15:15:43.275Z,108.87
2018-05-21T15:18:14.718Z,112.40
2018-05-21T15:20:45.719Z,104.90
2018-05-21T15:23:16.768Z,100.82
2018-05-21T15:25:48.127Z,101.80
2018-05-21T15:28:20.741Z,98.40
2018-05-21T15:30:52.609Z,97.57
2018-05-21T15:33:23.963Z,93.03
2018-05-21T15:35:55.281Z,99.37
2018-05-21T15:38:38.006Z,94.40
2018-05-21T15:41:09.343Z,96.57
2018-05-21T15:43:40.680Z,101.45
2018-05-21T15:46:19.323Z,100.00
2018-05-21T15:48:51.640Z,99.65
2018-05-21T15:51:25.783Z,98.32
2018-05-21T15:53:58.085Z,95.50
2018-05-21T15:56:29.508Z,98.37
2018-05-21T15:59:00.879Z,96.72
2018-05-21T16:01:32.211Z,97.88
2018-05-21T16:04:04.907Z,106.37
2018-05-21T16:06:37.567Z,97.85
2018-05-21T16:09:09.264Z,96.75
2018-05-21T16:11:40.275Z,95.62
2018-05-21T16:14:13.069Z,99.93
2018-05-21T16:16:44.595Z,92.82
2018-05-21T16:19:16.186Z,89.95
2018-05-21T16:21:48.827Z,98.62
2018-05-21T16:24:20.308Z,93.00
2018-05-21T16:26:51.378Z,99.70
2018-05-21T16:29:23.145Z,92.35
2018-05-21T16:31:54.251Z,99.57
2018-05-21T16:34:25.298Z,96.57
2018-05-21T16:36:56.637Z,97.10
2018-05-21T16:39:27.916Z,97.70
2018-05-21T16:41:59.324Z,96.80
2018-05-21T16:44:30.780Z,98.07
2018-05-21T16:47:01.851Z,100.15
2018-05-21T16:49:42.559Z,102.05
2018-05-21T16:52:13.580Z,93.20
2018-05-21T16:54:45.374Z,101.25
2018-05-21T16:57:19.027Z,97.80
2018-05-21T16:59:52.273Z,93.35
2018-05-21T17:02:24.444Z,96.00
2018-05-21T17:04:56.275Z,96.37
2018-05-21T17:07:27.651Z,97.43
2018-05-21T17:09:59.025Z,92.80
2018-05-21T17:12:32.428Z,95.80
2018-05-21T17:15:04.144Z,94.55
2018-05-21T17:17:35.164Z,94.20
2018-05-21T17:20:06.139Z,92.72
2018-05-21T17:22:36.941Z,93.15
2018-05-21T17:25:07.765Z,99.22
2018-05-21T17:27:38.908Z,96.32
2018-05-21T17:30:11.769Z,98.55
2018-05-21T17:32:42.625Z,98.78
2018-05-21T17:35:13.456Z,98.85
2018-05-21T17:37:44.264Z,94.62
2018-05-21T17:40:15.421Z,94.30
2018-05-21T17:42:46.225Z,89.18
2018-05-21T17:45:17.072Z,92.53
2018-05-21T17:47:49.565Z,95.40
2018-05-21T17:50:22.127Z,100.68
2018-05-21T17:52:54.496Z,94.53
2018-05-21T17:55:25.991Z,101.75
2018-05-21T17:57:57.192Z,100.03
2018-05-21T18:00:28.713Z,96.53
2018-05-21T18:03:01.533Z,102.12
2018-05-21T18:05:33.336Z,98.80
2018-05-21T18:08:05.784Z,100.78
2018-05-21T18:10:36.929Z,100.05
2018-05-21T18:13:09.740Z,97.50
2018-05-21T18:15:41.115Z,95.07
2018-05-21T18:18:22.469Z,89.53
2018-05-21T18:20:53.285Z,89.00
2018-05-21T18:23:24.319Z,95.78
2018-05-21T18:25:55.376Z,91.80
2018-05-21T18:28:26.460Z,95.60
2018-05-21T18:30:57.812Z,103.57
2018-05-21T18:33:28.757Z,103.60
2018-05-21T18:35:59.691Z,98.65
2018-05-21T18:38:30.836Z,101.95
2018-05-21T18:41:01.677Z,98.65
2018-05-21T18:43:32.472Z,100.82
2018-05-21T18:46:03.610Z,99.10
2018-05-21T18:48:34.925Z,102.32
2018-05-21T18:51:06.225Z,96.87
2018-05-21T18:53:49.315Z,100.60
2018-05-21T18:56:20.477Z,93.25
2018-05-21T18:58:51.577Z,95.47
2018-05-21T19:01:23.146Z,94.60
2018-05-21T19:03:54.180Z,93.37
2018-05-21T19:06:25.737Z,93.97
2018-05-21T19:08:56.817Z,90.28
2018-05-21T19:11:27.999Z,91.63
2018-05-21T19:14:19.120Z,95.82
2018-05-21T19:16:50.482Z,103.40
2018-05-21T19:19:21.571Z,94.25
2018-05-21T19:21:52.785Z,95.80
2018-05-21T19:24:24.164Z,98.15
2018-05-21T19:26:55.276Z,91.15
2018-05-21T19:29:39.602Z,96.03
2018-05-21T19:32:11.299Z,85.90
2018-05-21T19:34:42.515Z,87.68
2018-05-21T19:37:13.351Z,93.40
2018-05-21T19:39:44.140Z,90.72
2018-05-21T19:42:15.264Z,91.82
2018-05-21T19:44:46.083Z,92.40
2018-05-21T19:47:17.257Z,93.97
2018-05-21T19:52:56.327Z,86.25
2018-05-21T19:55:29.332Z,88.40
2018-05-21T19:58:01.181Z,90.20
2018-05-21T20:00:33.064Z,93.93
2018-05-21T20:03:06.143Z,92.05
2018-05-21T20:05:39.224Z,89.65
2018-05-21T20:08:12.286Z,87.95
2018-05-21T20:10:43.796Z,92.90
2018-05-21T20:13:17.110Z,91.40
2018-05-21T20:15:50.495Z,96.35
2018-05-21T20:18:40.386Z,89.47
2018-05-21T20:22:14.537Z,93.20
2018-05-21T20:31:28.348Z,87.47
2018-05-21T20:34:01.971Z,94.05
2018-05-21T20:36:39.169Z,97.72
2018-05-21T20:39:10.460Z,88.43
2018-05-21T20:41:43.116Z,86.47
2018-05-21T20:44:15.210Z,91.05
2018-05-21T20:46:46.923Z,89.95
2018-05-21T20:49:19.029Z,89.13
2018-05-21T20:51:50.280Z,87.03
2018-05-21T20:54:21.732Z,89.10
2018-05-21T20:56:53.252Z,88.07
2018-05-21T20:59:24.888Z,90.87
2018-05-21T21:01:56.218Z,90.45
2018-05-21T21:04:27.783Z,95.53
2018-05-21T21:06:58.976Z,97.93
2018-05-21T21:09:30.537Z,104.75
2018-05-21T21:12:03.006Z,95.22
2018-05-21T21:14:34.565Z,90.40
2018-05-21T21:17:05.934Z,95.07
2018-05-21T21:19:37.556Z,97.32
2018-05-21T21:22:08.626Z,94.68
2018-05-21T21:24:40.147Z,91.60
2018-05-21T21:27:11.421Z,89.78
2018-05-21T21:29:43.097Z,90.00
2018-05-21T21:32:14.404Z,92.55
2018-05-21T21:34:45.926Z,98.93
2018-05-21T21:37:17.133Z,89.87
2018-05-21T21:39:48.349Z,95.32
2018-05-21T21:42:19.517Z,89.13
2018-05-21T21:44:50.815Z,92.40
2018-05-21T21:47:22.106Z,87.00
2018-05-21T21:49:53.410Z,86.93
2018-05-21T21:52:25.197Z,87.70
2018-05-21T21:54:57.603Z,83.45
2018-05-21T21:57:28.831Z,88.30
2018-05-21T22:00:00.270Z,86.78
2018-05-21T22:02:31.761Z,85.55
2018-05-21T22:05:03.535Z,88.85
2018-05-21T22:07:34.761Z,88.30
2018-05-21T22:10:06.213Z,88.40
2018-05-21T22:12:37.621Z,85.35
2018-05-21T22:15:09.776Z,91.55
2018-05-21T22:17:42.102Z,146.52
2018-05-21T22:20:13.400Z,112.12
2018-05-21T22:22:44.682Z,102.38
2018-05-21T22:25:18.184Z,93.28
2018-05-21T22:27:49.562Z,87.88
2018-05-21T22:30:21.293Z,91.22
2018-05-21T22:32:53.186Z,90.75
2018-05-21T22:35:24.929Z,93.45
2018-05-21T22:37:56.197Z,93.37
2018-05-21T22:40:27.522Z,86.90
2018-05-21T22:42:59.035Z,92.82
2018-05-21T22:45:30.926Z,89.10
2018-05-21T22:48:03.386Z,97.43
2018-05-21T22:50:34.810Z,89.40
2018-05-21T22:53:06.666Z,93.32
2018-05-21T22:55:39.081Z,88.28
2018-05-21T22:58:11.561Z,92.82
2018-05-21T23:00:43.511Z,95.75
2018-05-21T23:03:14.725Z,88.62
2018-05-21T23:05:46.223Z,95.53
2018-05-21T23:08:17.660Z,84.75
2018-05-21T23:10:49.156Z,83.72
2018-05-21T23:13:20.609Z,91.45
2018-05-21T23:15:52.249Z,86.50
2018-05-21T23:18:23.660Z,86.22
2018-05-21T23:20:55.413Z,83.87
2018-05-21T23:23:26.729Z,84.50
2018-05-21T23:25:58.231Z,88.60
2018-05-21T23:28:29.547Z,91.95
2018-05-21T23:31:00.945Z,90.03
2018-05-21T23:33:32.385Z,83.10
2018-05-21T23:36:03.969Z,88.87
2018-05-21T23:38:35.419Z,88.40
2018-05-21T23:41:06.730Z,78.78
2018-05-21T23:43:38.211Z,82.88
2018-05-21T23:46:09.666Z,85.72
2018-05-21T23:48:41.077Z,80.12
2018-05-21T23:51:13.085Z,82.07
2018-05-21T23:53:44.427Z,82.03
2018-05-21T23:56:16.098Z,86.87
2018-05-21T23:58:47.513Z,85.28
